sensor_id;sensor_type;location;lat;lon;timestamp;pressure;altitude;pressure_sealevel;temperature;humidity
16194;BME280;8204;53.582;10.080;2023-01-27T00:01:16;101190.25;;;6.81;100.00
16194;BME280;8204;53.582;10.080;2023-01-27T00:03:45;101191.06;;;6.81;100.00
16194;BME280;8204;53.582;10.080;2023-01-27T00:06:14;101184.69;;;6.74;100.00
16194;BME280;8204;53.582;10.080;2023-01-27T00:08:42;101200.31;;;6.74;100.00
16194;BME280;8204;53.582;10.080;2023-01-27T00:11:14;101201.03;;;6.76;100.00
16194;BME280;8204;53.582;10.080;2023-01-27T00:13:56;101188.13;;;6.75;100.00
16194;BME280;8204;53.582;10.080;2023-01-27T00:16:24;101187.88;;;6.78;100.00
16194;BME280;8204;53.582;10.080;2023-01-27T00:18:54;101180.19;;;6.76;100.00
16194;BME280;8204;53.582;10.080;2023-01-27T00:21:23;101177.59;;;6.76;100.00
16194;BME280;8204;53.582;10.080;2023-01-27T00:24:05;101175.66;;;6.78;100.00
16194;BME280;8204;53.582;10.080;2023-01-27T00:26:49;101169.66;;;6.78;100.00
16194;BME280;8204;53.582;10.080;2023-01-27T00:29:18;101174.63;;;6.81;100.00
16194;BME280;8204;53.582;10.080;2023-01-27T00:31:47;101167.84;;;6.78;100.00
16194;BME280;8204;53.582;10.080;2023-01-27T00:34:28;101171.88;;;6.82;100.00
16194;BME280;8204;53.582;10.080;2023-01-27T00:36:57;101146.09;;;6.79;100.00
16194;BME280;8204;53.582;10.080;2023-01-27T00:39:26;101141.00;;;6.78;100.00
16194;BME280;8204;53.582;10.080;2023-01-27T00:41:58;101127.03;;;6.79;100.00
16194;BME280;8204;53.582;10.080;2023-01-27T00:44:26;101137.31;;;6.80;100.00
16194;BME280;8204;53.582;10.080;2023-01-27T00:46:55;101143.38;;;6.81;100.00
16194;BME280;8204;53.582;10.080;2023-01-27T00:49:24;101152.00;;;6.81;100.00
16194;BME280;8204;53.582;10.080;2023-01-27T00:51:54;101154.47;;;6.83;100.00
16194;BME280;8204;53.582;10.080;2023-01-27T00:54:24;101164.66;;;6.86;100.00
16194;BME280;8204;53.582;10.080;2023-01-27T00:56:52;101155.41;;;6.82;100.00
16194;BME280;8204;53.582;10.080;2023-01-27T00:59:24;101156.97;;;6.84;100.00
16194;BME280;8204;53.582;10.080;2023-01-27T01:01:53;101151.75;;;6.84;100.00
16194;BME280;8204;53.582;10.080;2023-01-27T01:04:22;101156.13;;;6.84;100.00
16194;BME280;8204;53.582;10.080;2023-01-27T01:06:51;101150.78;;;6.85;100.00
16194;BME280;8204;53.582;10.080;2023-01-27T01:09:20;101155.31;;;6.83;100.00
16194;BME280;8204;53.582;10.080;2023-01-27T01:11:49;101142.28;;;6.83;100.00
16194;BME280;8204;53.582;10.080;2023-01-27T01:14:17;101145.56;;;6.85;100.00
16194;BME280;8204;53.582;10.080;2023-01-27T01:16:51;101155.06;;;6.86;100.00
16194;BME280;8204;53.582;10.080;2023-01-27T01:19:21;101160.16;;;6.88;100.00
16194;BME280;8204;53.582;10.080;2023-01-27T01:21:49;101159.31;;;6.87;100.00
16194;BME280;8204;53.582;10.080;2023-01-27T01:24:18;101154.09;;;6.87;100.00
16194;BME280;8204;53.582;10.080;2023-01-27T01:26:47;101157.41;;;6.89;100.00
16194;BME280;8204;53.582;10.080;2023-01-27T01:29:16;101160.03;;;6.89;100.00
16194;BME280;8204;53.582;10.080;2023-01-27T01:31:44;101151.25;;;6.90;100.00
16194;BME280;8204;53.582;10.080;2023-01-27T01:34:16;101158.38;;;6.88;100.00
16194;BME280;8204;53.582;10.080;2023-01-27T01:36:45;101152.34;;;6.88;100.00
16194;BME280;8204;53.582;10.080;2023-01-27T01:39:13;101147.94;;;6.88;100.00
16194;BME280;8204;53.582;10.080;2023-01-27T01:41:42;101150.56;;;6.88;100.00
16194;BME280;8204;53.582;10.080;2023-01-27T01:44:19;101151.25;;;6.90;100.00
16194;BME280;8204;53.582;10.080;2023-01-27T01:46:48;101148.75;;;6.89;100.00
16194;BME280;8204;53.582;10.080;2023-01-27T01:49:22;101158.22;;;6.90;100.00
16194;BME280;8204;53.582;10.080;2023-01-27T01:51:56;101161.53;;;6.92;100.00
16194;BME280;8204;53.582;10.080;2023-01-27T01:54:30;101158.81;;;6.93;100.00
16194;BME280;8204;53.582;10.080;2023-01-27T01:57:04;101154.53;;;6.92;100.00
16194;BME280;8204;53.582;10.080;2023-01-27T01:59:38;101147.56;;;6.93;100.00
16194;BME280;8204;53.582;10.080;2023-01-27T02:02:11;101148.38;;;6.93;100.00
16194;BME280;8204;53.582;10.080;2023-01-27T02:04:46;101146.72;;;6.92;100.00
16194;BME280;8204;53.582;10.080;2023-01-27T02:07:21;101133.13;;;6.89;100.00
16194;BME280;8204;53.582;10.080;2023-01-27T02:09:53;101133.03;;;6.90;100.00
16194;BME280;8204;53.582;10.080;2023-01-27T02:12:23;101124.22;;;6.91;100.00
16194;BME280;8204;53.582;10.080;2023-01-27T02:14:52;101130.88;;;6.95;100.00
16194;BME280;8204;53.582;10.080;2023-01-27T02:17:22;101135.38;;;6.93;100.00
16194;BME280;8204;53.582;10.080;2023-01-27T02:20:00;101137.97;;;6.93;100.00
16194;BME280;8204;53.582;10.080;2023-01-27T02:22:36;101128.41;;;6.94;100.00
16194;BME280;8204;53.582;10.080;2023-01-27T02:25:16;101122.22;;;6.95;100.00
16194;BME280;8204;53.582;10.080;2023-01-27T02:27:49;101145.78;;;6.93;100.00
16194;BME280;8204;53.582;10.080;2023-01-27T02:30:19;101154.44;;;6.94;100.00
16194;BME280;8204;53.582;10.080;2023-01-27T02:32:48;101164.16;;;6.92;100.00
16194;BME280;8204;53.582;10.080;2023-01-27T02:35:22;101160.47;;;6.94;100.00
16194;BME280;8204;53.582;10.080;2023-01-27T02:37:55;101165.69;;;6.94;100.00
16194;BME280;8204;53.582;10.080;2023-01-27T02:40:25;101169.22;;;6.93;100.00
16194;BME280;8204;53.582;10.080;2023-01-27T02:42:58;101171.84;;;6.93;100.00
16194;BME280;8204;53.582;10.080;2023-01-27T02:45:28;101164.28;;;6.90;100.00
16194;BME280;8204;53.582;10.080;2023-01-27T02:47:58;101163.31;;;6.91;100.00
16194;BME280;8204;53.582;10.080;2023-01-27T02:50:26;101170.44;;;6.89;100.00
16194;BME280;8204;53.582;10.080;2023-01-27T02:52:56;101162.34;;;6.92;100.00
16194;BME280;8204;53.582;10.080;2023-01-27T02:55:24;101167.84;;;6.89;100.00
16194;BME280;8204;53.582;10.080;2023-01-27T02:57:53;101162.63;;;6.89;100.00
16194;BME280;8204;53.582;10.080;2023-01-27T03:00:25;101162.63;;;6.89;100.00
16194;BME280;8204;53.582;10.080;2023-01-27T03:02:53;101164.28;;;6.90;100.00
16194;BME280;8204;53.582;10.080;2023-01-27T03:05:22;101174.22;;;6.85;100.00
16194;BME280;8204;53.582;10.080;2023-01-27T03:07:51;101174.34;;;6.84;100.00
16194;BME280;8204;53.582;10.080;2023-01-27T03:10:20;101186.81;;;6.80;100.00
16194;BME280;8204;53.582;10.080;2023-01-27T03:12:49;101201.72;;;6.78;100.00
16194;BME280;8204;53.582;10.080;2023-01-27T03:15:19;101203.63;;;6.76;100.00
16194;BME280;8204;53.582;10.080;2023-01-27T03:18:07;101216.22;;;6.71;100.00
16194;BME280;8204;53.582;10.080;2023-01-27T03:20:43;101232.19;;;6.67;100.00
16194;BME280;8204;53.582;10.080;2023-01-27T03:23:14;101245.06;;;6.68;100.00
16194;BME280;8204;53.582;10.080;2023-01-27T03:25:46;101244.13;;;6.69;100.00
16194;BME280;8204;53.582;10.080;2023-01-27T03:28:15;101249.94;;;6.73;100.00
16194;BME280;8204;53.582;10.080;2023-01-27T03:30:44;101249.78;;;6.74;100.00
16194;BME280;8204;53.582;10.080;2023-01-27T03:33:15;101261.16;;;6.73;100.00
16194;BME280;8204;53.582;10.080;2023-01-27T03:35:44;101248.84;;;6.75;100.00
16194;BME280;8204;53.582;10.080;2023-01-27T03:38:26;101252.41;;;6.74;100.00
16194;BME280;8204;53.582;10.080;2023-01-27T03:41:07;101252.97;;;6.78;100.00
16194;BME280;8204;53.582;10.080;2023-01-27T03:43:48;101252.41;;;6.74;100.00
16194;BME280;8204;53.582;10.080;2023-01-27T03:46:29;101244.47;;;6.76;100.00
16194;BME280;8204;53.582;10.080;2023-01-27T03:49:01;101249.94;;;6.73;100.00
16194;BME280;8204;53.582;10.080;2023-01-27T03:51:29;101252.75;;;6.70;100.00
16194;BME280;8204;53.582;10.080;2023-01-27T03:53:58;101253.69;;;6.69;100.00
16194;BME280;8204;53.582;10.080;2023-01-27T03:56:27;101255.63;;;6.67;100.00
16194;BME280;8204;53.582;10.080;2023-01-27T03:58:56;101252.06;;;6.68;100.00
16194;BME280;8204;53.582;10.080;2023-01-27T04:01:25;101261.66;;;6.67;100.00
16194;BME280;8204;53.582;10.080;2023-01-27T04:03:54;101255.03;;;6.63;100.00
16194;BME280;8204;53.582;10.080;2023-01-27T04:06:40;101253.38;;;6.62;100.00
16194;BME280;8204;53.582;10.080;2023-01-27T04:09:25;101250.66;;;6.64;100.00
16194;BME280;8204;53.582;10.080;2023-01-27T04:11:57;101257.50;;;6.65;100.00
16194;BME280;8204;53.582;10.080;2023-01-27T04:14:28;101269.47;;;6.67;100.00
16194;BME280;8204;53.582;10.080;2023-01-27T04:16:59;101259.53;;;6.61;100.00
16194;BME280;8204;53.582;10.080;2023-01-27T04:19:29;101257.63;;;6.63;100.00
16194;BME280;8204;53.582;10.080;2023-01-27T04:22:00;101277.63;;;6.63;100.00
16194;BME280;8204;53.582;10.080;2023-01-27T04:24:29;101287.34;;;6.61;100.00
16194;BME280;8204;53.582;10.080;2023-01-27T04:27:00;101296.09;;;6.60;100.00
16194;BME280;8204;53.582;10.080;2023-01-27T04:29:31;101283.19;;;6.58;100.00
16194;BME280;8204;53.582;10.080;2023-01-27T04:32:01;101292.78;;;6.58;100.00
16194;BME280;8204;53.582;10.080;2023-01-27T04:34:31;101292.78;;;6.58;100.00
16194;BME280;8204;53.582;10.080;2023-01-27T04:37:03;101293.59;;;6.58;100.00
16194;BME280;8204;53.582;10.080;2023-01-27T04:39:33;101282.38;;;6.58;100.00
16194;BME280;8204;53.582;10.080;2023-01-27T04:42:02;101295.50;;;6.56;100.00
16194;BME280;8204;53.582;10.080;2023-01-27T04:44:31;101302.38;;;6.57;100.00
16194;BME280;8204;53.582;10.080;2023-01-27T04:47:00;101306.63;;;6.58;100.00
16194;BME280;8204;53.582;10.080;2023-01-27T04:49:28;101296.91;;;6.60;100.00
16194;BME280;8204;53.582;10.080;2023-01-27T04:51:57;101303.19;;;6.58;100.00
16194;BME280;8204;53.582;10.080;2023-01-27T04:54:29;101316.94;;;6.60;100.00
16194;BME280;8204;53.582;10.080;2023-01-27T04:56:59;101337.16;;;6.56;100.00
16194;BME280;8204;53.582;10.080;2023-01-27T04:59:28;101340.59;;;6.57;100.00
16194;BME280;8204;53.582;10.080;2023-01-27T05:01:57;101356.56;;;6.52;100.00
16194;BME280;8204;53.582;10.080;2023-01-27T05:04:26;101366.88;;;6.54;100.00
16194;BME280;8204;53.582;10.080;2023-01-27T05:06:55;101369.47;;;6.54;100.00
16194;BME280;8204;53.582;10.080;2023-01-27T05:09:24;101373.25;;;6.50;100.00
16194;BME280;8204;53.582;10.080;2023-01-27T05:11:56;101377.63;;;6.50;100.00
16194;BME280;8204;53.582;10.080;2023-01-27T05:14:26;101369.69;;;6.51;100.00
16194;BME280;8204;53.582;10.080;2023-01-27T05:16:56;101366.03;;;6.53;100.00
16194;BME280;8204;53.582;10.080;2023-01-27T05:19:24;101358.94;;;6.55;100.00
16194;BME280;8204;53.582;10.080;2023-01-27T05:21:53;101367.56;;;6.56;100.00
16194;BME280;8204;53.582;10.080;2023-01-27T05:24:22;101386.03;;;6.53;100.00
16194;BME280;8204;53.582;10.080;2023-01-27T05:26:51;101392.78;;;6.55;100.00
16194;BME280;8204;53.582;10.080;2023-01-27T05:29:23;101388.88;;;6.50;100.00
16194;BME280;8204;53.582;10.080;2023-01-27T05:31:52;101401.28;;;6.47;100.00
16194;BME280;8204;53.582;10.080;2023-01-27T05:34:21;101418.31;;;6.40;100.00
16194;BME280;8204;53.582;10.080;2023-01-27T05:36:50;101444.69;;;6.35;100.00
16194;BME280;8204;53.582;10.080;2023-01-27T05:39:19;101452.72;;;6.32;100.00
16194;BME280;8204;53.582;10.080;2023-01-27T05:41:47;101457.94;;;6.32;100.00
16194;BME280;8204;53.582;10.080;2023-01-27T05:44:16;101452.72;;;6.32;100.00
16194;BME280;8204;53.582;10.080;2023-01-27T05:46:50;101450.00;;;6.34;100.00
16194;BME280;8204;53.582;10.080;2023-01-27T05:49:19;101462.31;;;6.32;100.00
16194;BME280;8204;53.582;10.080;2023-01-27T05:51:48;101463.00;;;6.34;100.00
16194;BME280;8204;53.582;10.080;2023-01-27T05:54:17;101473.41;;;6.34;100.00
16194;BME280;8204;53.582;10.080;2023-01-27T05:56:46;101495.41;;;6.30;100.00
16194;BME280;8204;53.582;10.080;2023-01-27T05:59:14;101504.28;;;6.27;100.00
16194;BME280;8204;53.582;10.080;2023-01-27T06:01:44;101519.06;;;6.27;100.00
16194;BME280;8204;53.582;10.080;2023-01-27T06:04:15;101533.03;;;6.26;100.00
16194;BME280;8204;53.582;10.080;2023-01-27T06:06:44;101548.25;;;6.19;100.00
16194;BME280;8204;53.582;10.080;2023-01-27T06:09:13;101558.97;;;6.15;100.00
16194;BME280;8204;53.582;10.080;2023-01-27T06:11:42;101560.16;;;6.11;100.00
16194;BME280;8204;53.582;10.080;2023-01-27T06:14:12;101560.16;;;6.11;100.00
16194;BME280;8204;53.582;10.080;2023-01-27T06:16:41;101562.03;;;6.09;100.00
16194;BME280;8204;53.582;10.080;2023-01-27T06:19:14;101543.00;;;6.08;100.00
16194;BME280;8204;53.582;10.080;2023-01-27T06:21:43;101538.28;;;6.13;100.00
16194;BME280;8204;53.582;10.080;2023-01-27T06:24:12;101537.69;;;6.10;100.00
16194;BME280;8204;53.582;10.080;2023-01-27T06:26:41;101541.94;;;6.11;100.00
16194;BME280;8204;53.582;10.080;2023-01-27T06:29:09;101550.25;;;6.16;100.00
16194;BME280;8204;53.582;10.080;2023-01-27T06:31:38;101552.84;;;6.16;100.00
16194;BME280;8204;53.582;10.080;2023-01-27T06:34:07;101555.69;;;6.13;100.00
16194;BME280;8204;53.582;10.080;2023-01-27T06:36:38;101551.28;;;6.13;100.00
16194;BME280;8204;53.582;10.080;2023-01-27T06:39:07;101545.78;;;6.18;100.00
16194;BME280;8204;53.582;10.080;2023-01-27T06:41:37;101539.03;;;6.15;100.00
16194;BME280;8204;53.582;10.080;2023-01-27T06:44:06;101526.50;;;6.20;100.00
16194;BME280;8204;53.582;10.080;2023-01-27T06:46:35;101536.06;;;6.20;100.00
16194;BME280;8204;53.582;10.080;2023-01-27T06:49:03;101549.19;;;6.18;100.00
16194;BME280;8204;53.582;10.080;2023-01-27T06:51:32;101554.63;;;6.15;100.00
16194;BME280;8204;53.582;10.080;2023-01-27T06:54:04;101550.03;;;6.19;100.00
16194;BME280;8204;53.582;10.080;2023-01-27T06:56:32;101560.19;;;6.22;100.00
16194;BME280;8204;53.582;10.080;2023-01-27T06:59:01;101560.44;;;6.19;100.00
16194;BME280;8204;53.582;10.080;2023-01-27T07:01:30;101580.41;;;6.18;100.00
16194;BME280;8204;53.582;10.080;2023-01-27T07:04:00;101585.41;;;6.21;100.00
16194;BME280;8204;53.582;10.080;2023-01-27T07:06:28;101593.31;;;6.20;100.00
16194;BME280;8204;53.582;10.080;2023-01-27T07:08:57;101596.88;;;6.19;100.00
16194;BME280;8204;53.582;10.080;2023-01-27T07:11:28;101589.06;;;6.19;100.00
16194;BME280;8204;53.582;10.080;2023-01-27T07:13:57;101600.16;;;6.21;100.00
16194;BME280;8204;53.582;10.080;2023-01-27T07:16:26;101601.84;;;6.22;100.00
16194;BME280;8204;53.582;10.080;2023-01-27T07:18:56;101606.44;;;6.18;100.00
16194;BME280;8204;53.582;10.080;2023-01-27T07:21:25;101616.00;;;6.18;100.00
16194;BME280;8204;53.582;10.080;2023-01-27T07:23:54;101615.16;;;6.17;100.00
16194;BME280;8204;53.582;10.080;2023-01-27T07:26:23;101611.03;;;6.15;100.00
16194;BME280;8204;53.582;10.080;2023-01-27T07:28:55;101612.81;;;6.14;100.00
16194;BME280;8204;53.582;10.080;2023-01-27T07:31:24;101622.16;;;6.17;100.00
16194;BME280;8204;53.582;10.080;2023-01-27T07:33:53;101618.13;;;6.13;100.00
16194;BME280;8204;53.582;10.080;2023-01-27T07:36:23;101608.28;;;6.16;100.00
16194;BME280;8204;53.582;10.080;2023-01-27T07:38:51;101610.19;;;6.14;100.00
16194;BME280;8204;53.582;10.080;2023-01-27T07:41:20;101603.94;;;6.17;100.00
16194;BME280;8204;53.582;10.080;2023-01-27T07:43:50;101613.41;;;6.18;100.00
16194;BME280;8204;53.582;10.080;2023-01-27T07:46:22;101633.72;;;6.13;100.00
16194;BME280;8204;53.582;10.080;2023-01-27T07:48:50;101631.84;;;6.15;100.00
16194;BME280;8204;53.582;10.080;2023-01-27T07:51:19;101627.47;;;6.15;100.00
16194;BME280;8204;53.582;10.080;2023-01-27T07:53:48;101623.09;;;6.16;100.00
16194;BME280;8204;53.582;10.080;2023-01-27T07:56:17;101631.00;;;6.14;100.00
16194;BME280;8204;53.582;10.080;2023-01-27T07:58:46;101627.47;;;6.15;100.00
16194;BME280;8204;53.582;10.080;2023-01-27T08:01:17;101619.22;;;6.21;100.00
16194;BME280;8204;53.582;10.080;2023-01-27T08:03:49;101630.25;;;6.25;100.00
16194;BME280;8204;53.582;10.080;2023-01-27T08:06:18;101623.50;;;6.22;100.00
16194;BME280;8204;53.582;10.080;2023-01-27T08:08:47;101647.75;;;6.23;100.00
16194;BME280;8204;53.582;10.080;2023-01-27T08:11:16;101665.94;;;6.23;100.00
16194;BME280;8204;53.582;10.080;2023-01-27T08:13:46;101668.34;;;6.26;100.00
16194;BME280;8204;53.582;10.080;2023-01-27T08:16:15;101658.75;;;6.26;100.00
16194;BME280;8204;53.582;10.080;2023-01-27T08:18:43;101659.25;;;6.31;100.00
16194;BME280;8204;53.582;10.080;2023-01-27T08:21:15;101662.09;;;6.28;100.00
16194;BME280;8204;53.582;10.080;2023-01-27T08:23:44;101668.94;;;6.29;100.00
16194;BME280;8204;53.582;10.080;2023-01-27T08:26:13;101667.19;;;6.30;100.00
16194;BME280;8204;53.582;10.080;2023-01-27T08:28:41;101670.72;;;6.29;100.00
16194;BME280;8204;53.582;10.080;2023-01-27T08:31:12;101660.09;;;6.32;100.00
16194;BME280;8204;53.582;10.080;2023-01-27T08:33:43;101654.91;;;6.32;100.00
16194;BME280;8204;53.582;10.080;2023-01-27T08:36:16;101667.78;;;6.33;100.00
16194;BME280;8204;53.582;10.080;2023-01-27T08:38:45;101680.06;;;6.31;100.00
16194;BME280;8204;53.582;10.080;2023-01-27T08:41:17;101676.75;;;6.29;100.00
16194;BME280;8204;53.582;10.080;2023-01-27T08:43:46;101661.97;;;6.30;100.00
16194;BME280;8204;53.582;10.080;2023-01-27T08:46:15;101658.44;;;6.31;100.00
16194;BME280;8204;53.582;10.080;2023-01-27T08:48:44;101650.94;;;6.26;100.00
16194;BME280;8204;53.582;10.080;2023-01-27T08:51:17;101649.16;;;6.27;100.00
16194;BME280;8204;53.582;10.080;2023-01-27T08:53:46;101639.50;;;6.29;100.00
16194;BME280;8204;53.582;10.080;2023-01-27T08:56:15;101643.88;;;6.28;100.00
16194;BME280;8204;53.582;10.080;2023-01-27T08:58:44;101643.03;;;6.28;100.00
16194;BME280;8204;53.582;10.080;2023-01-27T09:01:14;101630.88;;;6.28;100.00
16194;BME280;8204;53.582;10.080;2023-01-27T09:03:45;101635.94;;;6.30;100.00
16194;BME280;8204;53.582;10.080;2023-01-27T09:06:17;101622.69;;;6.33;100.00
16194;BME280;8204;53.582;10.080;2023-01-27T09:08:46;101635.72;;;6.33;100.00
16194;BME280;8204;53.582;10.080;2023-01-27T09:11:34;101651.56;;;6.30;100.00
16194;BME280;8204;53.582;10.080;2023-01-27T09:14:04;101658.44;;;6.31;100.00
16194;BME280;8204;53.582;10.080;2023-01-27T09:16:34;101651.56;;;6.30;100.00
16194;BME280;8204;53.582;10.080;2023-01-27T09:19:03;101644.50;;;6.32;100.00
16194;BME280;8204;53.582;10.080;2023-01-27T09:21:36;101666.25;;;6.31;100.00
16194;BME280;8204;53.582;10.080;2023-01-27T09:24:05;101677.34;;;6.33;100.00
16194;BME280;8204;53.582;10.080;2023-01-27T09:26:34;101680.69;;;6.35;100.00
16194;BME280;8204;53.582;10.080;2023-01-27T09:29:03;101689.44;;;6.34;100.00
16194;BME280;8204;53.582;10.080;2023-01-27T09:31:32;101696.44;;;6.33;100.00
16194;BME280;8204;53.582;10.080;2023-01-27T09:34:01;101699.97;;;6.32;100.00
16194;BME280;8204;53.582;10.080;2023-01-27T09:36:32;101702.69;;;6.31;100.00
16194;BME280;8204;53.582;10.080;2023-01-27T09:39:07;101693.22;;;6.30;100.00
16194;BME280;8204;53.582;10.080;2023-01-27T09:41:57;101690.38;;;6.33;100.00
16194;BME280;8204;53.582;10.080;2023-01-27T09:45:02;101688.81;;;6.30;100.00
16194;BME280;8204;53.582;10.080;2023-01-27T09:47:42;101692.97;;;6.33;100.00
16194;BME280;8204;53.582;10.080;2023-01-27T09:50:27;101717.44;;;6.30;100.00
16194;BME280;8204;53.582;10.080;2023-01-27T09:53:11;101739.19;;;6.29;100.00
16194;BME280;8204;53.582;10.080;2023-01-27T09:55:49;101739.19;;;6.29;100.00
16194;BME280;8204;53.582;10.080;2023-01-27T09:58:31;101761.19;;;6.25;100.00
16194;BME280;8204;53.582;10.080;2023-01-27T10:01:12;101785.47;;;6.26;100.00
16194;BME280;8204;53.582;10.080;2023-01-27T10:04:06;101807.09;;;6.26;100.00
16194;BME280;8204;53.582;10.080;2023-01-27T10:06:44;101798.25;;;6.29;100.00
16194;BME280;8204;53.582;10.080;2023-01-27T10:09:35;101819.69;;;6.32;100.00
16194;BME280;8204;53.582;10.080;2023-01-27T10:12:19;101862.16;;;6.33;100.00
16194;BME280;8204;53.582;10.080;2023-01-27T10:15:03;101911.41;;;6.36;100.00
16194;BME280;8204;53.582;10.080;2023-01-27T10:17:40;101932.84;;;6.39;100.00
16194;BME280;8204;53.582;10.080;2023-01-27T10:20:25;101937.25;;;6.39;100.00
16194;BME280;8204;53.582;10.080;2023-01-27T10:23:02;101912.44;;;6.46;100.00
16194;BME280;8204;53.582;10.080;2023-01-27T10:25:42;101916.72;;;6.47;100.00
16194;BME280;8204;53.582;10.080;2023-01-27T10:28:20;101922.47;;;6.52;100.00
16194;BME280;8204;53.582;10.080;2023-01-27T10:30:57;101958.69;;;6.54;100.00
16194;BME280;8204;53.582;10.080;2023-01-27T10:33:38;101976.38;;;6.62;100.00
16194;BME280;8204;53.582;10.080;2023-01-27T10:36:14;101968.50;;;6.63;100.00
16194;BME280;8204;53.582;10.080;2023-01-27T10:38:50;101970.34;;;6.61;100.00
16194;BME280;8204;53.582;10.080;2023-01-27T10:41:27;102003.28;;;6.62;100.00
16194;BME280;8204;53.582;10.080;2023-01-27T10:44:16;102011.72;;;6.66;100.00
16194;BME280;8204;53.582;10.080;2023-01-27T10:46:53;102035.47;;;6.61;100.00
16194;BME280;8204;53.582;10.080;2023-01-27T10:49:28;102036.50;;;6.59;100.00
16194;BME280;8204;53.582;10.080;2023-01-27T10:52:06;102046.91;;;6.59;100.00
16194;BME280;8204;53.582;10.080;2023-01-27T10:54:39;101991.63;;;6.68;100.00
16194;BME280;8204;53.582;10.080;2023-01-27T10:57:13;101989.03;;;6.68;100.00
16194;BME280;8204;53.582;10.080;2023-01-27T10:59:53;102011.59;;;6.67;100.00
16194;BME280;8204;53.582;10.080;2023-01-27T11:02:30;102048.28;;;6.64;100.00
16194;BME280;8204;53.582;10.080;2023-01-27T11:05:06;102033.28;;;6.68;100.00
16194;BME280;8204;53.582;10.080;2023-01-27T11:07:44;102055.88;;;6.67;100.00
16194;BME280;8204;53.582;10.080;2023-01-27T11:10:16;102077.00;;;6.63;100.00
16194;BME280;8204;53.582;10.080;2023-01-27T11:12:48;102063.91;;;6.64;100.00
16194;BME280;8204;53.582;10.080;2023-01-27T11:15:25;102062.44;;;6.60;100.00
16194;BME280;8204;53.582;10.080;2023-01-27T11:17:59;102058.78;;;6.63;100.00
16194;BME280;8204;53.582;10.080;2023-01-27T11:20:31;102092.00;;;6.59;100.00
16194;BME280;8204;53.582;10.080;2023-01-27T11:23:05;102110.44;;;6.56;100.00
16194;BME280;8204;53.582;10.080;2023-01-27T11:25:46;102123.66;;;6.53;100.00
16194;BME280;8204;53.582;10.080;2023-01-27T11:28:27;102111.56;;;6.52;100.00
16194;BME280;8204;53.582;10.080;2023-01-27T11:31:12;102115.31;;;6.49;100.00
16194;BME280;8204;53.582;10.080;2023-01-27T11:33:51;102097.59;;;6.53;100.00
16194;BME280;8204;53.582;10.080;2023-01-27T11:36:24;102085.53;;;6.52;100.00
16194;BME280;8204;53.582;10.080;2023-01-27T11:38:54;102104.72;;;6.52;100.00
16194;BME280;8204;53.582;10.080;2023-01-27T11:41:27;102129.06;;;6.51;100.00
16194;BME280;8204;53.582;10.080;2023-01-27T11:43:55;102128.31;;;6.49;100.00
16194;BME280;8204;53.582;10.080;2023-01-27T11:46:27;102118.66;;;6.51;100.00
16194;BME280;8204;53.582;10.080;2023-01-27T11:48:58;102099.09;;;6.57;100.00
16194;BME280;8204;53.582;10.080;2023-01-27T11:51:34;102116.19;;;6.61;100.00
16194;BME280;8204;53.582;10.080;2023-01-27T11:54:09;102114.22;;;6.65;100.00
16194;BME280;8204;53.582;10.080;2023-01-27T11:56:43;102118.50;;;6.66;100.00
16194;BME280;8204;53.582;10.080;2023-01-27T11:59:16;102105.34;;;6.67;100.00
16194;BME280;8204;53.582;10.080;2023-01-27T12:01:52;102098.28;;;6.69;100.00
16194;BME280;8204;53.582;10.080;2023-01-27T12:04:40;102094.44;;;6.75;100.00
16194;BME280;8204;53.582;10.080;2023-01-27T12:07:17;102043.59;;;6.82;100.00
16194;BME280;8204;53.582;10.080;2023-01-27T12:09:48;102086.41;;;6.78;100.00
16194;BME280;8204;53.582;10.080;2023-01-27T12:12:22;102091.00;;;6.74;100.00
16194;BME280;8204;53.582;10.080;2023-01-27T12:14:52;102089.78;;;6.80;100.00
16194;BME280;8204;53.582;10.080;2023-01-27T12:17:28;102094.13;;;6.79;100.00
16194;BME280;8204;53.582;10.080;2023-01-27T12:20:01;102096.72;;;6.79;100.00
16194;BME280;8204;53.582;10.080;2023-01-27T12:22:35;102092.25;;;6.81;100.00
16194;BME280;8204;53.582;10.080;2023-01-27T12:25:12;102100.19;;;6.80;100.00
16194;BME280;8204;53.582;10.080;2023-01-27T12:27:47;102103.13;;;6.88;100.00
16194;BME280;8204;53.582;10.080;2023-01-27T12:30:21;102108.13;;;6.91;100.00
16194;BME280;8204;53.582;10.080;2023-01-27T12:32:53;102125.31;;;6.93;100.00
16194;BME280;8204;53.582;10.080;2023-01-27T12:35:26;102141.69;;;6.95;100.00
16194;BME280;8204;53.582;10.080;2023-01-27T12:38:00;102171.91;;;6.98;100.00
16194;BME280;8204;53.582;10.080;2023-01-27T12:40:30;102165.78;;;6.99;100.00
16194;BME280;8204;53.582;10.080;2023-01-27T12:43:12;102179.63;;;6.99;100.00
16194;BME280;8204;53.582;10.080;2023-01-27T12:45:41;102181.09;;;7.03;100.00
16194;BME280;8204;53.582;10.080;2023-01-27T12:48:20;102192.47;;;7.02;100.00
16194;BME280;8204;53.582;10.080;2023-01-27T12:50:53;102200.28;;;7.02;100.00
16194;BME280;8204;53.582;10.080;2023-01-27T12:53:24;102239.56;;;6.99;100.00
16194;BME280;8204;53.582;10.080;2023-01-27T12:55:57;102264.16;;;6.95;100.00
16194;BME280;8204;53.582;10.080;2023-01-27T12:58:30;102261.31;;;6.86;100.00
16194;BME280;8204;53.582;10.080;2023-01-27T13:01:03;102262.13;;;6.86;100.00
16194;BME280;8204;53.582;10.080;2023-01-27T13:03:39;102242.94;;;6.87;100.00
16194;BME280;8204;53.582;10.080;2023-01-27T13:06:13;102228.06;;;6.89;100.00
16194;BME280;8204;53.582;10.080;2023-01-27T13:08:44;102234.22;;;6.88;100.00
16194;BME280;8204;53.582;10.080;2023-01-27T13:11:30;102244.81;;;6.85;100.00
16194;BME280;8204;53.582;10.080;2023-01-27T13:14:00;102247.81;;;6.79;100.00
16194;BME280;8204;53.582;10.080;2023-01-27T13:16:29;102240.84;;;6.80;100.00